sensor_id;sensor_type;location;lat;lon;timestamp;P1;durP1;ratioP1;P2;durP2;ratioP2
21769;SDS011;11046;49.558;8.674;2023-06-26T00:00:56;8.02;;;4.90;;
21769;SDS011;11046;49.558;8.674;2023-06-26T00:03:57;8.55;;;5.45;;
21769;SDS011;11046;49.558;8.674;2023-06-26T00:06:58;11.27;;;5.43;;
21769;SDS011;11046;49.558;8.674;2023-06-26T00:09:59;8.38;;;5.25;;
21769;SDS011;11046;49.558;8.674;2023-06-26T00:13:00;8.48;;;5.30;;
21769;SDS011;11046;49.558;8.674;2023-06-26T00:16:02;7.45;;;5.63;;
21769;SDS011;11046;49.558;8.674;2023-06-26T00:19:03;7.38;;;5.88;;
21769;SDS011;11046;49.558;8.674;2023-06-26T00:22:03;7.88;;;5.63;;
21769;SDS011;11046;49.558;8.674;2023-06-26T00:25:04;7.10;;;5.68;;
21769;SDS011;11046;49.558;8.674;2023-06-26T00:28:05;6.60;;;5.28;;
21769;SDS011;11046;49.558;8.674;2023-06-26T00:31:05;12.73;;;5.70;;
21769;SDS011;11046;49.558;8.674;2023-06-26T00:34:06;8.25;;;5.75;;
21769;SDS011;11046;49.558;8.674;2023-06-26T00:37:07;7.47;;;5.53;;
21769;SDS011;11046;49.558;8.674;2023-06-26T00:40:07;8.55;;;5.30;;
21769;SDS011;11046;49.558;8.674;2023-06-26T00:43:09;6.97;;;5.38;;
21769;SDS011;11046;49.558;8.674;2023-06-26T00:46:10;7.63;;;5.53;;
21769;SDS011;11046;49.558;8.674;2023-06-26T00:49:12;9.07;;;5.45;;
21769;SDS011;11046;49.558;8.674;2023-06-26T00:52:14;7.93;;;6.07;;
21769;SDS011;11046;49.558;8.674;2023-06-26T00:55:16;6.80;;;5.60;;
21769;SDS011;11046;49.558;8.674;2023-06-26T00:58:17;7.75;;;5.60;;
21769;SDS011;11046;49.558;8.674;2023-06-26T01:01:18;8.43;;;5.93;;
21769;SDS011;11046;49.558;8.674;2023-06-26T01:04:21;8.45;;;5.70;;
21769;SDS011;11046;49.558;8.674;2023-06-26T01:07:27;7.20;;;5.68;;
21769;SDS011;11046;49.558;8.674;2023-06-26T01:10:28;6.75;;;5.47;;
21769;SDS011;11046;49.558;8.674;2023-06-26T01:13:29;7.88;;;5.97;;
21769;SDS011;11046;49.558;8.674;2023-06-26T01:16:30;10.00;;;5.90;;
21769;SDS011;11046;49.558;8.674;2023-06-26T01:19:31;7.70;;;5.97;;
21769;SDS011;11046;49.558;8.674;2023-06-26T01:29:15;7.25;;;5.70;;
21769;SDS011;11046;49.558;8.674;2023-06-26T01:32:18;8.27;;;5.80;;
21769;SDS011;11046;49.558;8.674;2023-06-26T01:35:20;8.38;;;5.70;;
21769;SDS011;11046;49.558;8.674;2023-06-26T01:38:21;11.98;;;6.15;;
21769;SDS011;11046;49.558;8.674;2023-06-26T01:41:26;8.35;;;5.72;;
21769;SDS011;11046;49.558;8.674;2023-06-26T01:44:27;10.93;;;6.35;;
21769;SDS011;11046;49.558;8.674;2023-06-26T01:47:29;9.55;;;5.80;;
21769;SDS011;11046;49.558;8.674;2023-06-26T01:50:32;7.97;;;6.00;;
21769;SDS011;11046;49.558;8.674;2023-06-26T01:53:36;7.82;;;5.65;;
21769;SDS011;11046;49.558;8.674;2023-06-26T01:56:41;7.93;;;6.03;;
21769;SDS011;11046;49.558;8.674;2023-06-26T01:59:45;8.25;;;6.35;;
21769;SDS011;11046;49.558;8.674;2023-06-26T02:02:47;7.97;;;6.00;;
21769;SDS011;11046;49.558;8.674;2023-06-26T02:05:47;8.65;;;6.30;;
21769;SDS011;11046;49.558;8.674;2023-06-26T02:08:48;9.45;;;5.85;;
21769;SDS011;11046;49.558;8.674;2023-06-26T02:11:49;7.85;;;5.90;;
21769;SDS011;11046;49.558;8.674;2023-06-26T02:14:49;8.73;;;6.40;;
21769;SDS011;11046;49.558;8.674;2023-06-26T02:17:51;10.50;;;5.78;;
21769;SDS011;11046;49.558;8.674;2023-06-26T02:20:51;8.15;;;6.20;;
21769;SDS011;11046;49.558;8.674;2023-06-26T02:23:52;9.25;;;6.40;;
21769;SDS011;11046;49.558;8.674;2023-06-26T02:26:52;8.15;;;6.15;;
21769;SDS011;11046;49.558;8.674;2023-06-26T02:29:53;10.05;;;5.97;;
21769;SDS011;11046;49.558;8.674;2023-06-26T02:32:54;8.80;;;6.65;;
21769;SDS011;11046;49.558;8.674;2023-06-26T02:35:54;8.98;;;6.10;;
21769;SDS011;11046;49.558;8.674;2023-06-26T02:38:55;8.98;;;6.43;;
21769;SDS011;11046;49.558;8.674;2023-06-26T02:41:56;9.65;;;6.25;;
21769;SDS011;11046;49.558;8.674;2023-06-26T02:44:57;8.20;;;6.63;;
21769;SDS011;11046;49.558;8.674;2023-06-26T02:47:58;9.23;;;6.63;;
21769;SDS011;11046;49.558;8.674;2023-06-26T02:50:59;9.90;;;6.07;;
21769;SDS011;11046;49.558;8.674;2023-06-26T02:54:03;10.30;;;5.97;;
21769;SDS011;11046;49.558;8.674;2023-06-26T02:57:04;7.40;;;5.85;;
21769;SDS011;11046;49.558;8.674;2023-06-26T03:00:06;8.07;;;5.88;;
21769;SDS011;11046;49.558;8.674;2023-06-26T03:03:10;7.20;;;5.72;;
21769;SDS011;11046;49.558;8.674;2023-06-26T03:06:10;8.57;;;6.15;;
21769;SDS011;11046;49.558;8.674;2023-06-26T03:09:11;10.20;;;6.25;;
21769;SDS011;11046;49.558;8.674;2023-06-26T03:12:11;7.38;;;5.68;;
21769;SDS011;11046;49.558;8.674;2023-06-26T03:15:12;9.57;;;6.10;;
21769;SDS011;11046;49.558;8.674;2023-06-26T03:18:13;7.05;;;5.68;;
21769;SDS011;11046;49.558;8.674;2023-06-26T03:21:14;8.48;;;5.85;;
21769;SDS011;11046;49.558;8.674;2023-06-26T03:24:15;7.75;;;5.68;;
21769;SDS011;11046;49.558;8.674;2023-06-26T03:27:16;8.00;;;5.95;;
21769;SDS011;11046;49.558;8.674;2023-06-26T03:30:18;7.82;;;5.90;;
21769;SDS011;11046;49.558;8.674;2023-06-26T03:33:20;8.85;;;6.15;;
21769;SDS011;11046;49.558;8.674;2023-06-26T03:36:22;8.82;;;6.50;;
21769;SDS011;11046;49.558;8.674;2023-06-26T03:39:22;8.23;;;5.50;;
21769;SDS011;11046;49.558;8.674;2023-06-26T03:42:23;9.60;;;6.05;;
21769;SDS011;11046;49.558;8.674;2023-06-26T03:45:24;9.77;;;6.03;;
21769;SDS011;11046;49.558;8.674;2023-06-26T03:48:24;9.90;;;6.40;;
21769;SDS011;11046;49.558;8.674;2023-06-26T03:51:25;8.50;;;6.25;;
21769;SDS011;11046;49.558;8.674;2023-06-26T03:54:26;8.68;;;6.50;;
21769;SDS011;11046;49.558;8.674;2023-06-26T03:57:26;8.82;;;6.30;;
21769;SDS011;11046;49.558;8.674;2023-06-26T04:00:27;8.60;;;5.95;;
21769;SDS011;11046;49.558;8.674;2023-06-26T04:03:28;9.70;;;6.10;;
21769;SDS011;11046;49.558;8.674;2023-06-26T04:06:29;9.07;;;6.22;;
21769;SDS011;11046;49.558;8.674;2023-06-26T04:09:31;7.88;;;6.25;;
21769;SDS011;11046;49.558;8.674;2023-06-26T04:12:32;9.32;;;6.55;;
21769;SDS011;11046;49.558;8.674;2023-06-26T04:15:32;10.77;;;6.20;;
21769;SDS011;11046;49.558;8.674;2023-06-26T04:18:33;9.45;;;6.47;;
21769;SDS011;11046;49.558;8.674;2023-06-26T04:21:33;9.30;;;6.85;;
21769;SDS011;11046;49.558;8.674;2023-06-26T04:24:34;7.85;;;6.03;;
21769;SDS011;11046;49.558;8.674;2023-06-26T04:27:34;9.43;;;6.32;;
21769;SDS011;11046;49.558;8.674;2023-06-26T04:30:35;9.52;;;6.75;;
21769;SDS011;11046;49.558;8.674;2023-06-26T04:33:36;9.98;;;6.80;;
21769;SDS011;11046;49.558;8.674;2023-06-26T04:36:37;8.68;;;5.78;;
21769;SDS011;11046;49.558;8.674;2023-06-26T04:39:38;15.20;;;6.40;;
21769;SDS011;11046;49.558;8.674;2023-06-26T04:42:39;9.02;;;6.47;;
21769;SDS011;11046;49.558;8.674;2023-06-26T04:45:40;9.90;;;6.35;;
21769;SDS011;11046;49.558;8.674;2023-06-26T04:48:40;10.38;;;6.57;;
21769;SDS011;11046;49.558;8.674;2023-06-26T04:51:41;11.07;;;6.47;;
21769;SDS011;11046;49.558;8.674;2023-06-26T04:54:41;9.23;;;6.10;;
21769;SDS011;11046;49.558;8.674;2023-06-26T04:57:42;8.30;;;6.35;;
21769;SDS011;11046;49.558;8.674;2023-06-26T05:00:42;8.90;;;6.40;;
21769;SDS011;11046;49.558;8.674;2023-06-26T05:03:43;8.75;;;6.63;;
21769;SDS011;11046;49.558;8.674;2023-06-26T05:06:45;9.25;;;6.45;;
21769;SDS011;11046;49.558;8.674;2023-06-26T05:09:45;10.90;;;5.95;;
21769;SDS011;11046;49.558;8.674;2023-06-26T05:12:46;13.20;;;6.72;;
21769;SDS011;11046;49.558;8.674;2023-06-26T05:15:47;12.48;;;6.75;;
21769;SDS011;11046;49.558;8.674;2023-06-26T05:18:49;11.27;;;6.30;;
21769;SDS011;11046;49.558;8.674;2023-06-26T05:21:49;9.23;;;5.95;;
21769;SDS011;11046;49.558;8.674;2023-06-26T05:24:51;10.88;;;6.40;;
21769;SDS011;11046;49.558;8.674;2023-06-26T05:27:55;9.40;;;6.38;;
21769;SDS011;11046;49.558;8.674;2023-06-26T05:30:57;8.65;;;5.82;;
21769;SDS011;11046;49.558;8.674;2023-06-26T05:33:58;9.57;;;6.32;;
21769;SDS011;11046;49.558;8.674;2023-06-26T05:37:02;8.73;;;6.93;;
21769;SDS011;11046;49.558;8.674;2023-06-26T05:40:04;15.00;;;7.10;;
21769;SDS011;11046;49.558;8.674;2023-06-26T05:43:05;10.25;;;6.55;;
21769;SDS011;11046;49.558;8.674;2023-06-26T05:46:06;12.50;;;6.68;;
21769;SDS011;11046;49.558;8.674;2023-06-26T05:49:07;10.13;;;6.53;;
21769;SDS011;11046;49.558;8.674;2023-06-26T05:52:08;8.18;;;5.82;;
21769;SDS011;11046;49.558;8.674;2023-06-26T05:55:09;9.75;;;6.80;;
21769;SDS011;11046;49.558;8.674;2023-06-26T05:58:11;10.43;;;6.55;;
21769;SDS011;11046;49.558;8.674;2023-06-26T06:01:12;10.07;;;5.80;;
21769;SDS011;11046;49.558;8.674;2023-06-26T06:04:13;11.85;;;6.53;;
21769;SDS011;11046;49.558;8.674;2023-06-26T06:07:13;9.60;;;7.10;;
21769;SDS011;11046;49.558;8.674;2023-06-26T06:10:14;9.30;;;6.68;;
21769;SDS011;11046;49.558;8.674;2023-06-26T06:13:15;10.45;;;6.65;;
21769;SDS011;11046;49.558;8.674;2023-06-26T06:16:15;9.65;;;6.75;;
21769;SDS011;11046;49.558;8.674;2023-06-26T06:22:20;9.43;;;6.38;;
21769;SDS011;11046;49.558;8.674;2023-06-26T06:25:21;9.07;;;6.75;;
21769;SDS011;11046;49.558;8.674;2023-06-26T06:28:21;7.50;;;5.97;;
21769;SDS011;11046;49.558;8.674;2023-06-26T06:31:22;9.95;;;7.18;;
21769;SDS011;11046;49.558;8.674;2023-06-26T06:34:22;12.15;;;6.57;;
21769;SDS011;11046;49.558;8.674;2023-06-26T06:37:23;9.00;;;6.55;;
21769;SDS011;11046;49.558;8.674;2023-06-26T06:40:24;8.57;;;6.05;;
21769;SDS011;11046;49.558;8.674;2023-06-26T06:43:25;8.80;;;6.43;;
21769;SDS011;11046;49.558;8.674;2023-06-26T06:46:26;11.55;;;6.32;;
21769;SDS011;11046;49.558;8.674;2023-06-26T06:49:27;11.57;;;6.38;;
21769;SDS011;11046;49.558;8.674;2023-06-26T06:52:27;10.85;;;6.72;;
21769;SDS011;11046;49.558;8.674;2023-06-26T06:55:28;8.95;;;6.65;;
21769;SDS011;11046;49.558;8.674;2023-06-26T06:58:29;11.68;;;6.57;;
21769;SDS011;11046;49.558;8.674;2023-06-26T07:01:34;10.80;;;6.18;;
21769;SDS011;11046;49.558;8.674;2023-06-26T07:04:34;11.32;;;5.95;;
21769;SDS011;11046;49.558;8.674;2023-06-26T07:07:35;7.22;;;6.10;;
21769;SDS011;11046;49.558;8.674;2023-06-26T07:10:36;10.57;;;5.88;;
21769;SDS011;11046;49.558;8.674;2023-06-26T07:13:37;7.05;;;5.60;;
21769;SDS011;11046;49.558;8.674;2023-06-26T07:16:37;8.60;;;6.43;;
21769;SDS011;11046;49.558;8.674;2023-06-26T07:19:38;6.78;;;5.88;;
21769;SDS011;11046;49.558;8.674;2023-06-26T07:22:38;9.77;;;6.53;;
21769;SDS011;11046;49.558;8.674;2023-06-26T07:25:39;9.27;;;6.15;;
21769;SDS011;11046;49.558;8.674;2023-06-26T07:28:39;7.47;;;6.00;;
21769;SDS011;11046;49.558;8.674;2023-06-26T07:31:40;9.20;;;6.57;;
21769;SDS011;11046;49.558;8.674;2023-06-26T07:34:41;9.90;;;6.38;;
21769;SDS011;11046;49.558;8.674;2023-06-26T07:37:41;7.78;;;6.35;;
21769;SDS011;11046;49.558;8.674;2023-06-26T07:40:42;8.63;;;6.53;;
21769;SDS011;11046;49.558;8.674;2023-06-26T07:43:43;8.48;;;6.60;;
21769;SDS011;11046;49.558;8.674;2023-06-26T07:46:43;8.02;;;5.70;;
21769;SDS011;11046;49.558;8.674;2023-06-26T07:49:46;11.45;;;6.50;;
21769;SDS011;11046;49.558;8.674;2023-06-26T07:52:47;7.45;;;6.03;;
21769;SDS011;11046;49.558;8.674;2023-06-26T07:55:48;8.77;;;6.30;;
21769;SDS011;11046;49.558;8.674;2023-06-26T07:58:48;8.00;;;6.60;;
21769;SDS011;11046;49.558;8.674;2023-06-26T08:01:53;8.95;;;5.95;;
21769;SDS011;11046;49.558;8.674;2023-06-26T08:04:54;7.30;;;5.90;;
21769;SDS011;11046;49.558;8.674;2023-06-26T08:07:55;7.75;;;6.30;;
21769;SDS011;11046;49.558;8.674;2023-06-26T08:10:56;10.88;;;6.18;;
21769;SDS011;11046;49.558;8.674;2023-06-26T08:13:57;7.30;;;5.95;;
21769;SDS011;11046;49.558;8.674;2023-06-26T08:16:58;9.10;;;6.30;;
21769;SDS011;11046;49.558;8.674;2023-06-26T08:19:59;8.52;;;6.13;;
21769;SDS011;11046;49.558;8.674;2023-06-26T08:23:00;8.65;;;6.53;;
21769;SDS011;11046;49.558;8.674;2023-06-26T08:26:01;7.85;;;6.57;;
21769;SDS011;11046;49.558;8.674;2023-06-26T08:29:01;8.05;;;6.55;;
21769;SDS011;11046;49.558;8.674;2023-06-26T08:32:08;8.15;;;6.57;;
21769;SDS011;11046;49.558;8.674;2023-06-26T08:35:08;7.90;;;6.47;;
21769;SDS011;11046;49.558;8.674;2023-06-26T08:38:10;7.35;;;6.43;;
21769;SDS011;11046;49.558;8.674;2023-06-26T08:41:10;7.55;;;6.38;;
21769;SDS011;11046;49.558;8.674;2023-06-26T08:44:11;6.90;;;6.00;;
21769;SDS011;11046;49.558;8.674;2023-06-26T08:47:13;7.25;;;6.30;;
21769;SDS011;11046;49.558;8.674;2023-06-26T08:50:14;7.57;;;6.35;;
21769;SDS011;11046;49.558;8.674;2023-06-26T08:56:46;6.80;;;6.00;;
21769;SDS011;11046;49.558;8.674;2023-06-26T08:59:49;7.13;;;6.07;;
21769;SDS011;11046;49.558;8.674;2023-06-26T09:02:51;8.07;;;6.35;;
21769;SDS011;11046;49.558;8.674;2023-06-26T09:05:52;8.43;;;5.90;;
21769;SDS011;11046;49.558;8.674;2023-06-26T09:08:52;10.20;;;6.13;;
21769;SDS011;11046;49.558;8.674;2023-06-26T09:11:53;12.15;;;6.10;;
21769;SDS011;11046;49.558;8.674;2023-06-26T09:14:55;9.27;;;6.65;;
21769;SDS011;11046;49.558;8.674;2023-06-26T09:17:56;9.05;;;5.82;;
21769;SDS011;11046;49.558;8.674;2023-06-26T09:21:00;9.63;;;5.97;;
21769;SDS011;11046;49.558;8.674;2023-06-26T09:24:06;8.30;;;5.57;;
21769;SDS011;11046;49.558;8.674;2023-06-26T09:27:08;8.52;;;6.10;;
21769;SDS011;11046;49.558;8.674;2023-06-26T09:30:10;7.45;;;6.03;;
21769;SDS011;11046;49.558;8.674;2023-06-26T09:33:17;8.20;;;5.63;;
21769;SDS011;11046;49.558;8.674;2023-06-26T09:36:19;7.20;;;5.72;;
21769;SDS011;11046;49.558;8.674;2023-06-26T09:39:25;6.90;;;4.90;;
21769;SDS011;11046;49.558;8.674;2023-06-26T09:42:26;5.95;;;4.60;;
21769;SDS011;11046;49.558;8.674;2023-06-26T09:45:27;12.38;;;5.38;;
21769;SDS011;11046;49.558;8.674;2023-06-26T09:48:28;8.18;;;5.35;;
21769;SDS011;11046;49.558;8.674;2023-06-26T09:51:29;5.85;;;4.93;;
21769;SDS011;11046;49.558;8.674;2023-06-26T09:54:31;6.05;;;4.95;;
21769;SDS011;11046;49.558;8.674;2023-06-26T09:57:34;8.02;;;5.10;;
21769;SDS011;11046;49.558;8.674;2023-06-26T10:00:34;5.95;;;4.88;;
21769;SDS011;11046;49.558;8.674;2023-06-26T10:03:35;7.88;;;5.03;;
21769;SDS011;11046;49.558;8.674;2023-06-26T10:06:37;6.43;;;5.00;;
21769;SDS011;11046;49.558;8.674;2023-06-26T10:09:42;6.72;;;5.13;;
21769;SDS011;11046;49.558;8.674;2023-06-26T10:12:44;5.93;;;5.15;;
21769;SDS011;11046;49.558;8.674;2023-06-26T10:15:48;7.00;;;5.90;;
21769;SDS011;11046;49.558;8.674;2023-06-26T10:18:53;5.60;;;4.90;;
21769;SDS011;11046;49.558;8.674;2023-06-26T10:21:56;9.73;;;5.43;;
21769;SDS011;11046;49.558;8.674;2023-06-26T10:24:58;7.63;;;5.57;;
21769;SDS011;11046;49.558;8.674;2023-06-26T10:28:01;7.57;;;5.55;;
21769;SDS011;11046;49.558;8.674;2023-06-26T10:31:03;6.03;;;5.07;;
21769;SDS011;11046;49.558;8.674;2023-06-26T10:34:05;7.00;;;5.35;;
21769;SDS011;11046;49.558;8.674;2023-06-26T10:37:06;7.82;;;5.03;;
21769;SDS011;11046;49.558;8.674;2023-06-26T10:40:07;5.95;;;5.22;;
21769;SDS011;11046;49.558;8.674;2023-06-26T10:43:08;5.88;;;4.93;;
21769;SDS011;11046;49.558;8.674;2023-06-26T10:46:09;7.45;;;5.10;;
21769;SDS011;11046;49.558;8.674;2023-06-26T10:49:10;8.35;;;5.30;;
21769;SDS011;11046;49.558;8.674;2023-06-26T10:52:13;9.82;;;5.63;;
21769;SDS011;11046;49.558;8.674;2023-06-26T10:55:13;5.28;;;4.78;;
21769;SDS011;11046;49.558;8.674;2023-06-26T10:58:27;7.75;;;5.13;;
21769;SDS011;11046;49.558;8.674;2023-06-26T11:01:39;9.45;;;5.10;;
21769;SDS011;11046;49.558;8.674;2023-06-26T11:04:45;5.70;;;4.50;;
21769;SDS011;11046;49.558;8.674;2023-06-26T11:08:08;6.20;;;4.95;;
21769;SDS011;11046;49.558;8.674;2023-06-26T11:11:09;5.82;;;4.63;;
21769;SDS011;11046;49.558;8.674;2023-06-26T11:14:09;6.75;;;4.60;;
21769;SDS011;11046;49.558;8.674;2023-06-26T11:17:11;7.00;;;4.70;;
21769;SDS011;11046;49.558;8.674;2023-06-26T11:20:15;8.88;;;5.38;;
21769;SDS011;11046;49.558;8.674;2023-06-26T11:23:16;7.30;;;4.95;;
21769;SDS011;11046;49.558;8.674;2023-06-26T11:26:24;7.45;;;5.85;;
21769;SDS011;11046;49.558;8.674;2023-06-26T11:29:25;5.82;;;5.18;;
21769;SDS011;11046;49.558;8.674;2023-06-26T11:32:26;6.50;;;5.07;;
21769;SDS011;11046;49.558;8.674;2023-06-26T11:35:28;8.73;;;5.85;;
21769;SDS011;11046;49.558;8.674;2023-06-26T11:38:36;6.13;;;4.57;;
21769;SDS011;11046;49.558;8.674;2023-06-26T11:41:39;6.03;;;4.75;;
21769;SDS011;11046;49.558;8.674;2023-06-26T11:44:41;8.90;;;5.13;;
21769;SDS011;11046;49.558;8.674;2023-06-26T11:47:43;10.40;;;5.88;;
21769;SDS011;11046;49.558;8.674;2023-06-26T11:50:43;8.73;;;6.28;;
21769;SDS011;11046;49.558;8.674;2023-06-26T11:53:45;6.40;;;5.68;;
21769;SDS011;11046;49.558;8.674;2023-06-26T11:56:57;7.13;;;6.10;;
21769;SDS011;11046;49.558;8.674;2023-06-26T12:00:09;6.80;;;5.70;;
21769;SDS011;11046;49.558;8.674;2023-06-26T12:03:11;8.18;;;6.13;;
21769;SDS011;11046;49.558;8.674;2023-06-26T12:06:12;7.05;;;5.90;;
21769;SDS011;11046;49.558;8.674;2023-06-26T12:09:13;7.55;;;6.20;;
21769;SDS011;11046;49.558;8.674;2023-06-26T12:12:15;7.13;;;5.47;;
21769;SDS011;11046;49.558;8.674;2023-06-26T12:15:17;6.50;;;5.28;;
21769;SDS011;11046;49.558;8.674;2023-06-26T12:18:19;8.25;;;4.82;;
21769;SDS011;11046;49.558;8.674;2023-06-26T12:24:46;4.97;;;4.28;;
21769;SDS011;11046;49.558;8.674;2023-06-26T12:27:47;6.75;;;4.13;;
21769;SDS011;11046;49.558;8.674;2023-06-26T12:31:11;6.00;;;4.45;;
21769;SDS011;11046;49.558;8.674;2023-06-26T12:34:15;7.30;;;4.30;;
21769;SDS011;11046;49.558;8.674;2023-06-26T12:37:18;6.22;;;4.10;;
21769;SDS011;11046;49.558;8.674;2023-06-26T12:40:19;7.03;;;4.38;;
21769;SDS011;11046;49.558;8.674;2023-06-26T12:43:23;6.60;;;4.05;;
21769;SDS011;11046;49.558;8.674;2023-06-26T12:46:33;4.65;;;4.00;;
21769;SDS011;11046;49.558;8.674;2023-06-26T12:49:35;7.13;;;4.20;;
21769;SDS011;11046;49.558;8.674;2023-06-26T12:52:37;5.30;;;4.40;;
21769;SDS011;11046;49.558;8.674;2023-06-26T12:55:37;6.78;;;4.03;;
21769;SDS011;11046;49.558;8.674;2023-06-26T12:58:38;10.18;;;3.85;;
21769;SDS011;11046;49.558;8.674;2023-06-26T13:01:38;4.57;;;4.00;;
21769;SDS011;11046;49.558;8.674;2023-06-26T13:04:39;6.47;;;3.92;;
21769;SDS011;11046;49.558;8.674;2023-06-26T13:07:40;6.07;;;3.90;;
21769;SDS011;11046;49.558;8.674;2023-06-26T13:10:41;7.25;;;4.60;;
21769;SDS011;11046;49.558;8.674;2023-06-26T13:13:41;6.65;;;4.63;;
21769;SDS011;11046;49.558;8.674;2023-06-26T13:16:42;8.90;;;4.82;;
21769;SDS011;11046;49.558;8.674;2023-06-26T13:19:43;8.70;;;5.28;;
21769;SDS011;11046;49.558;8.674;2023-06-26T13:22:43;7.78;;;6.00;;
21769;SDS011;11046;49.558;8.674;2023-06-26T13:25:46;9.13;;;7.13;;
21769;SDS011;11046;49.558;8.674;2023-06-26T13:28:47;10.35;;;7.35;;
21769;SDS011;11046;49.558;8.674;2023-06-26T13:31:48;8.77;;;7.28;;
21769;SDS011;11046;49.558;8.674;2023-06-26T13:34:49;9.63;;;7.38;;
21769;SDS011;11046;49.558;8.674;2023-06-26T13:37:49;11.13;;;7.15;;
21769;SDS011;11046;49.558;8.674;2023-06-26T13:40:51;10.68;;;7.45;;
21769;SDS011;11046;49.558;8.674;2023-06-26T13:43:52;11.23;;;7.07;;
21769;SDS011;11046;49.558;8.674;2023-06-26T13:46:52;11.90;;;7.90;;
21769;SDS011;11046;49.558;8.674;2023-06-26T13:49:53;7.95;;;6.47;;
21769;SDS011;11046;49.558;8.674;2023-06-26T13:52:54;9.65;;;6.80;;
21769;SDS011;11046;49.558;8.674;2023-06-26T13:55:54;8.30;;;5.15;;
21769;SDS011;11046;49.558;8.674;2023-06-26T13:58:55;7.47;;;4.18;;
21769;SDS011;11046;49.558;8.674;2023-06-26T14:01:55;5.78;;;4.32;;
21769;SDS011;11046;49.558;8.674;2023-06-26T14:04:56;9.77;;;4.20;;
21769;SDS011;11046;49.558;8.674;2023-06-26T14:07:56;6.05;;;4.07;;
21769;SDS011;11046;49.558;8.674;2023-06-26T14:10:57;5.88;;;3.90;;
21769;SDS011;11046;49.558;8.674;2023-06-26T14:13:58;5.72;;;3.88;;
21769;SDS011;11046;49.558;8.674;2023-06-26T14:16:58;5.35;;;3.67;;
21769;SDS011;11046;49.558;8.674;2023-06-26T14:19:59;2.95;;;2.65;;
21769;SDS011;11046;49.558;8.674;2023-06-26T14:22:59;6.18;;;2.97;;
21769;SDS011;11046;49.558;8.674;2023-06-26T14:26:00;5.00;;;3.00;;
21769;SDS011;11046;49.558;8.674;2023-06-26T14:29:00;3.88;;;2.67;;
21769;SDS011;11046;49.558;8.674;2023-06-26T14:32:02;6.32;;;2.60;;
21769;SDS011;11046;49.558;8.674;2023-06-26T14:35:03;3.80;;;2.58;;
21769;SDS011;11046;49.558;8.674;2023-06-26T14:38:04;3.85;;;2.58;;
21769;SDS011;11046;49.558;8.674;2023-06-26T14:41:05;4.05;;;2.50;;
21769;SDS011;11046;49.558;8.674;2023-06-26T14:44:05;3.90;;;2.25;;
21769;SDS011;11046;49.558;8.674;2023-06-26T14:47:08;6.75;;;2.85;;
21769;SDS011;11046;49.558;8.674;2023-06-26T14:50:08;3.55;;;2.58;;
21769;SDS011;11046;49.558;8.674;2023-06-26T14:53:09;3.80;;;2.10;;
21769;SDS011;11046;49.558;8.674;2023-06-26T14:56:10;4.18;;;2.00;;
21769;SDS011;11046;49.558;8.674;2023-06-26T14:59:11;2.60;;;2.33;;
21769;SDS011;11046;49.558;8.674;2023-06-26T15:02:12;3.08;;;2.40;;
21769;SDS011;11046;49.558;8.674;2023-06-26T15:05:13;3.33;;;2.10;;
21769;SDS011;11046;49.558;8.674;2023-06-26T15:08:13;4.80;;;1.88;;
21769;SDS011;11046;49.558;8.674;2023-06-26T15:11:14;3.45;;;2.33;;
21769;SDS011;11046;49.558;8.674;2023-06-26T15:14:17;2.25;;;2.00;;
21769;SDS011;11046;49.558;8.674;2023-06-26T15:17:18;4.28;;;2.20;;
21769;SDS011;11046;49.558;8.674;2023-06-26T15:20:19;4.15;;;2.25;;
21769;SDS011;11046;49.558;8.674;2023-06-26T15:23:19;3.80;;;2.10;;
21769;SDS011;11046;49.558;8.674;2023-06-26T15:26:20;4.38;;;1.98;;
21769;SDS011;11046;49.558;8.674;2023-06-26T15:29:20;5.45;;;2.22;;
21769;SDS011;11046;49.558;8.674;2023-06-26T15:32:24;3.05;;;1.75;;
21769;SDS011;11046;49.558;8.674;2023-06-26T15:35:25;2.42;;;1.60;;
21769;SDS011;11046;49.558;8.674;2023-06-26T15:38:26;3.58;;;1.73;;
21769;SDS011;11046;49.558;8.674;2023-06-26T15:41:27;5.28;;;2.15;;
21769;SDS011;11046;49.558;8.674;2023-06-26T15:44:27;4.13;;;1.90;;
21769;SDS011;11046;49.558;8.674;2023-06-26T15:47:28;4.13;;;1.85;;
21769;SDS011;11046;49.558;8.674;2023-06-26T15:50:29;4.90;;;1.60;;
21769;SDS011;11046;49.558;8.674;2023-06-26T15:53:36;7.22;;;1.80;;
21769;SDS011;11046;49.558;8.674;2023-06-26T15:56:37;2.22;;;1.60;;
21769;SDS011;11046;49.558;8.674;2023-06-26T15:59:38;3.67;;;1.88;;
21769;SDS011;11046;49.558;8.674;2023-06-26T16:02:39;7.50;;;2.03;;
21769;SDS011;11046;49.558;8.674;2023-06-26T16:05:39;3.42;;;1.58;;
21769;SDS011;11046;49.558;8.674;2023-06-26T16:08:41;4.70;;;1.77;;
21769;SDS011;11046;49.558;8.674;2023-06-26T16:11:42;3.45;;;1.55;;
21769;SDS011;11046;49.558;8.674;2023-06-26T16:14:43;3.58;;;1.60;;
21769;SDS011;11046;49.558;8.674;2023-06-26T16:17:43;3.13;;;1.58;;
21769;SDS011;11046;49.558;8.674;2023-06-26T16:20:44;4.95;;;1.65;;
21769;SDS011;11046;49.558;8.674;2023-06-26T16:23:46;5.53;;;2.03;;
21769;SDS011;11046;49.558;8.674;2023-06-26T16:26:46;2.05;;;1.58;;
21769;SDS011;11046;49.558;8.674;2023-06-26T16:29:47;4.20;;;1.38;;
21769;SDS011;11046;49.558;8.674;2023-06-26T16:32:47;2.90;;;1.55;;
21769;SDS011;11046;49.558;8.674;2023-06-26T16:35:48;5.60;;;1.85;;
21769;SDS011;11046;49.558;8.674;2023-06-26T16:38:48;3.15;;;1.70;;
21769;SDS011;11046;49.558;8.674;2023-06-26T16:41:49;3.55;;;1.60;;
21769;SDS011;11046;49.558;8.674;2023-06-26T16:44:54;3.13;;;1.63;;
21769;SDS011;11046;49.558;8.674;2023-06-26T16:47:55;3.65;;;2.03;;
21769;SDS011;11046;49.558;8.674;2023-06-26T16:50:56;2.08;;;1.27;;
21769;SDS011;11046;49.558;8.674;2023-06-26T16:53:57;3.25;;;2.05;;
21769;SDS011;11046;49.558;8.674;2023-06-26T16:56:57;3.53;;;1.65;;
21769;SDS011;11046;49.558;8.674;2023-06-26T16:59:59;3.78;;;1.63;;
21769;SDS011;11046;49.558;8.674;2023-06-26T17:02:59;2.20;;;1.60;;
21769;SDS011;11046;49.558;8.674;2023-06-26T17:06:00;3.83;;;1.77;;
21769;SDS011;11046;49.558;8.674;2023-06-26T17:09:00;8.68;;;1.80;;
21769;SDS011;11046;49.558;8.674;2023-06-26T17:12:01;2.92;;;1.48;;
21769;SDS011;11046;49.558;8.674;2023-06-26T17:15:02;3.80;;;1.67;;
21769;SDS011;11046;49.558;8.674;2023-06-26T17:18:03;2.80;;;1.42;;
21769;SDS011;11046;49.558;8.674;2023-06-26T17:21:04;4.28;;;1.40;;
21769;SDS011;11046;49.558;8.674;2023-06-26T17:24:05;4.43;;;1.70;;
21769;SDS011;11046;49.558;8.674;2023-06-26T17:27:12;2.65;;;1.50;;
21769;SDS011;11046;49.558;8.674;2023-06-26T17:30:15;4.03;;;1.30;;
21769;SDS011;11046;49.558;8.674;2023-06-26T17:33:17;5.82;;;1.58;;
21769;SDS011;11046;49.558;8.674;2023-06-26T17:36:18;2.95;;;1.75;;
21769;SDS011;11046;49.558;8.674;2023-06-26T17:39:18;3.78;;;1.27;;
21769;SDS011;11046;49.558;8.674;2023-06-26T17:42:20;5.65;;;1.77;;
21769;SDS011;11046;49.558;8.674;2023-06-26T17:45:21;3.00;;;1.60;;
21769;SDS011;11046;49.558;8.674;2023-06-26T17:48:22;8.23;;;2.00;;
21769;SDS011;11046;49.558;8.674;2023-06-26T17:51:22;3.45;;;1.50;;
21769;SDS011;11046;49.558;8.674;2023-06-26T17:54:24;5.78;;;1.60;;
21769;SDS011;11046;49.558;8.674;2023-06-26T17:57:26;3.53;;;1.60;;
21769;SDS011;11046;49.558;8.674;2023-06-26T18:00:27;5.50;;;1.88;;
21769;SDS011;11046;49.558;8.674;2023-06-26T18:03:28;6.10;;;1.63;;
21769;SDS011;11046;49.558;8.674;2023-06-26T18:06:29;6.30;;;2.05;;
21769;SDS011;11046;49.558;8.674;2023-06-26T18:09:30;8.32;;;1.92;;
21769;SDS011;11046;49.558;8.674;2023-06-26T18:12:31;4.05;;;1.75;;
21769;SDS011;11046;49.558;8.674;2023-06-26T18:15:31;5.20;;;1.85;;
21769;SDS011;11046;49.558;8.674;2023-06-26T18:18:32;3.85;;;2.05;;
21769;SDS011;11046;49.558;8.674;2023-06-26T18:21:32;4.40;;;1.65;;
21769;SDS011;11046;49.558;8.674;2023-06-26T18:24:33;3.88;;;1.70;;
21769;SDS011;11046;49.558;8.674;2023-06-26T18:27:33;3.72;;;2.05;;